createdAt,value
2022-08-01T00:11:03.259Z,983.2
2022-08-01T00:25:34.918Z,983.2
2022-08-01T00:39:59.417Z,983.1
2022-08-01T00:54:27.262Z,983.1
2022-08-01T01:08:55.622Z,983.1
2022-08-01T01:23:24.746Z,983.1
2022-08-01T01:37:52.563Z,983.2
2022-08-01T01:52:21.106Z,983.2
2022-08-01T02:06:49.895Z,983.2
2022-08-01T02:21:18.136Z,983.2
2022-08-01T02:36:33.833Z,983.2
2022-08-01T02:50:39.828Z,983.2
2022-08-01T03:05:07.529Z,983.2
2022-08-01T03:19:35.335Z,983.2
2022-08-01T03:34:06.339Z,983.2
2022-08-01T03:48:31.587Z,983.4
2022-08-01T04:03:00.006Z,983.4
2022-08-01T04:17:28.741Z,983.3
2022-08-01T04:31:56.532Z,983.4
2022-08-01T04:46:24.326Z,983.5
2022-08-01T05:00:54.914Z,983.6
2022-08-01T05:15:23.121Z,983.7
2022-08-01T05:29:51.884Z,983.7
2022-08-01T05:44:20.290Z,983.8
2022-08-01T05:58:49.441Z,983.9
2022-08-01T06:13:18.628Z,983.9
2022-08-01T06:27:46.996Z,984
2022-08-01T06:42:15.433Z,984
2022-08-01T06:56:45.565Z,984
2022-08-01T07:11:14.487Z,984
2022-08-01T07:25:55.018Z,984
2022-08-01T07:40:22.692Z,984.2
2022-08-01T07:54:52.599Z,984.2
2022-08-01T08:09:21.133Z,984.3
2022-08-01T08:23:47.971Z,984.4
2022-08-01T08:38:30.280Z,984.4
2022-08-01T08:52:49.005Z,984.5
2022-08-01T09:07:14.150Z,984.5
2022-08-01T09:21:43.991Z,984.6
2022-08-01T09:36:15.101Z,984.7
2022-08-01T09:50:41.182Z,984.8
2022-08-01T10:05:09.450Z,984.7
2022-08-01T10:19:38.749Z,984.7
2022-08-01T10:34:08.734Z,984.6
2022-08-01T10:48:36.037Z,984.5
2022-08-01T11:03:04.038Z,984.4
2022-08-01T11:17:43.084Z,984.4
2022-08-01T11:32:04.346Z,984.3
2022-08-01T11:46:31.180Z,984.4
2022-08-01T12:00:59.285Z,984.2
2022-08-01T12:15:41.100Z,984.4
2022-08-01T12:30:02.598Z,984.4
2022-08-01T12:44:29.523Z,984.5
2022-08-01T12:58:58.365Z,984.3
2022-08-01T13:13:29.132Z,984.3
2022-08-01T13:27:55.380Z,984.3
2022-08-01T13:42:25.295Z,984.3
2022-08-01T13:56:51.487Z,984.4
2022-08-01T14:11:21.814Z,984.2
2022-08-01T14:26:12.636Z,984.3
2022-08-01T14:40:32.110Z,984.3
2022-08-01T14:54:59.589Z,984.3
2022-08-01T15:09:22.198Z,984.2
2022-08-01T15:23:49.707Z,984.3
2022-08-01T15:38:17.169Z,984.3
2022-08-01T15:52:43.768Z,984.4
2022-08-01T16:07:12.152Z,984.4
2022-08-01T16:21:39.280Z,984.4
2022-08-01T16:36:06.358Z,984.6
2022-08-01T16:50:33.822Z,984.6
2022-08-01T17:05:12.837Z,984.5
2022-08-01T17:19:33.628Z,984.5
2022-08-01T17:33:58.628Z,984.7
2022-08-01T17:48:27.278Z,984.7
2022-08-01T18:02:55.885Z,984.7
2022-08-01T18:17:29.591Z,984.7
2022-08-01T18:32:02.748Z,984.8
2022-08-01T18:46:27.613Z,985
2022-08-01T19:00:52.715Z,985
2022-08-01T19:15:19.288Z,985.3
2022-08-01T19:29:45.296Z,985.4
2022-08-01T19:44:10.434Z,985.6
2022-08-01T19:58:38.331Z,985.8
2022-08-01T20:13:05.231Z,985.8
2022-08-01T20:27:32.315Z,985.7
2022-08-01T20:42:00.787Z,985.8
2022-08-01T20:56:26.997Z,985.9
2022-08-01T21:10:56.659Z,986
2022-08-01T21:25:23.072Z,985.9
2022-08-01T21:39:48.776Z,985.9
2022-08-01T21:54:16.477Z,985.8
2022-08-01T22:08:50.319Z,985.8
2022-08-01T22:23:11.437Z,985.9
2022-08-01T22:37:57.898Z,986
2022-08-01T22:52:14.804Z,986.1
2022-08-01T23:06:42.931Z,986.1
2022-08-01T23:21:10.210Z,986.1
2022-08-01T23:35:39.541Z,986.2
2022-08-01T23:50:06.775Z,986.1
